sensor_id;sensor_type;location;lat;lon;timestamp;temperature;humidity
13591;DHT22;6866;50.778;7.206;2022-10-28T00:01:09;17.30;99.90
13591;DHT22;6866;50.778;7.206;2022-10-28T00:03:40;17.30;99.90
13591;DHT22;6866;50.778;7.206;2022-10-28T00:06:08;17.30;99.90
13591;DHT22;6866;50.778;7.206;2022-10-28T00:08:34;17.30;99.90
13591;DHT22;6866;50.778;7.206;2022-10-28T00:11:05;17.30;99.90
13591;DHT22;6866;50.778;7.206;2022-10-28T00:13:30;17.40;99.90
13591;DHT22;6866;50.778;7.206;2022-10-28T00:16:03;17.30;99.90
13591;DHT22;6866;50.778;7.206;2022-10-28T00:18:29;17.40;99.90
13591;DHT22;6866;50.778;7.206;2022-10-28T00:21:03;17.40;99.90
13591;DHT22;6866;50.778;7.206;2022-10-28T00:23:29;17.40;99.90
13591;DHT22;6866;50.778;7.206;2022-10-28T00:26:01;17.40;99.90
13591;DHT22;6866;50.778;7.206;2022-10-28T00:28:27;17.40;99.90
13591;DHT22;6866;50.778;7.206;2022-10-28T00:30:53;17.40;99.90
13591;DHT22;6866;50.778;7.206;2022-10-28T00:33:18;17.40;99.90
13591;DHT22;6866;50.778;7.206;2022-10-28T00:35:44;17.40;99.90
13591;DHT22;6866;50.778;7.206;2022-10-28T00:38:09;17.40;99.90
13591;DHT22;6866;50.778;7.206;2022-10-28T00:40:35;17.40;99.90
13591;DHT22;6866;50.778;7.206;2022-10-28T00:43:00;17.40;99.90
13591;DHT22;6866;50.778;7.206;2022-10-28T00:45:26;17.50;99.90
13591;DHT22;6866;50.778;7.206;2022-10-28T00:47:55;17.40;99.90
13591;DHT22;6866;50.778;7.206;2022-10-28T00:50:27;17.50;99.90
13591;DHT22;6866;50.778;7.206;2022-10-28T00:52:59;17.50;99.90
13591;DHT22;6866;50.778;7.206;2022-10-28T00:55:26;17.50;99.90
13591;DHT22;6866;50.778;7.206;2022-10-28T00:57:53;17.50;99.90
13591;DHT22;6866;50.778;7.206;2022-10-28T01:05:35;17.60;99.90
13591;DHT22;6866;50.778;7.206;2022-10-28T01:08:03;17.50;99.90
13591;DHT22;6866;50.778;7.206;2022-10-28T01:16:37;17.50;99.90
13591;DHT22;6866;50.778;7.206;2022-10-28T01:22:56;17.60;99.90
13591;DHT22;6866;50.778;7.206;2022-10-28T01:36:54;17.60;99.90
13591;DHT22;6866;50.778;7.206;2022-10-28T01:39:25;17.70;99.90
13591;DHT22;6866;50.778;7.206;2022-10-28T01:44:36;17.60;99.90
13591;DHT22;6866;50.778;7.206;2022-10-28T01:47:11;17.60;99.90
13591;DHT22;6866;50.778;7.206;2022-10-28T01:49:48;17.60;99.90
13591;DHT22;6866;50.778;7.206;2022-10-28T01:52:20;17.50;99.90
13591;DHT22;6866;50.778;7.206;2022-10-28T01:54:52;17.40;99.90
13591;DHT22;6866;50.778;7.206;2022-10-28T01:57:19;17.50;99.90
13591;DHT22;6866;50.778;7.206;2022-10-28T01:59:47;17.50;99.90
13591;DHT22;6866;50.778;7.206;2022-10-28T02:02:15;17.50;99.90
13591;DHT22;6866;50.778;7.206;2022-10-28T02:04:41;17.60;99.90
13591;DHT22;6866;50.778;7.206;2022-10-28T02:07:07;17.60;99.90
13591;DHT22;6866;50.778;7.206;2022-10-28T02:10:08;17.60;99.90
13591;DHT22;6866;50.778;7.206;2022-10-28T02:12:38;17.60;99.90
13591;DHT22;6866;50.778;7.206;2022-10-28T02:21:07;17.70;99.90
13591;DHT22;6866;50.778;7.206;2022-10-28T02:31:50;17.70;99.90
13591;DHT22;6866;50.778;7.206;2022-10-28T02:34:21;17.70;99.90
13591;DHT22;6866;50.778;7.206;2022-10-28T02:36:51;17.70;99.90
13591;DHT22;6866;50.778;7.206;2022-10-28T02:39:22;17.80;99.90
13591;DHT22;6866;50.778;7.206;2022-10-28T02:42:00;17.70;99.90
13591;DHT22;6866;50.778;7.206;2022-10-28T02:44:32;17.70;99.90
13591;DHT22;6866;50.778;7.206;2022-10-28T02:47:03;17.70;99.90
13591;DHT22;6866;50.778;7.206;2022-10-28T02:49:30;17.60;99.90
13591;DHT22;6866;50.778;7.206;2022-10-28T02:52:01;17.50;99.90
13591;DHT22;6866;50.778;7.206;2022-10-28T02:54:36;17.50;99.90
13591;DHT22;6866;50.778;7.206;2022-10-28T02:57:14;17.40;99.90
13591;DHT22;6866;50.778;7.206;2022-10-28T02:59:40;17.40;99.90
13591;DHT22;6866;50.778;7.206;2022-10-28T03:02:06;17.30;99.90
13591;DHT22;6866;50.778;7.206;2022-10-28T03:04:32;17.30;99.90
13591;DHT22;6866;50.778;7.206;2022-10-28T03:06:57;17.20;99.90
13591;DHT22;6866;50.778;7.206;2022-10-28T03:09:23;17.20;99.90
13591;DHT22;6866;50.778;7.206;2022-10-28T03:11:48;17.20;99.90
13591;DHT22;6866;50.778;7.206;2022-10-28T03:14:14;17.10;99.90
13591;DHT22;6866;50.778;7.206;2022-10-28T03:16:39;17.20;99.90
13591;DHT22;6866;50.778;7.206;2022-10-28T03:19:05;17.10;99.90
13591;DHT22;6866;50.778;7.206;2022-10-28T03:21:30;17.10;99.90
13591;DHT22;6866;50.778;7.206;2022-10-28T03:23:56;17.20;99.90
13591;DHT22;6866;50.778;7.206;2022-10-28T03:26:21;17.10;99.90
13591;DHT22;6866;50.778;7.206;2022-10-28T03:28:47;17.10;99.90
13591;DHT22;6866;50.778;7.206;2022-10-28T03:31:12;17.20;99.90
13591;DHT22;6866;50.778;7.206;2022-10-28T03:33:39;17.10;99.90
13591;DHT22;6866;50.778;7.206;2022-10-28T03:36:05;17.10;99.90
13591;DHT22;6866;50.778;7.206;2022-10-28T03:38:31;17.10;99.90
13591;DHT22;6866;50.778;7.206;2022-10-28T03:40:56;17.10;99.90
13591;DHT22;6866;50.778;7.206;2022-10-28T03:43:22;17.10;99.90
13591;DHT22;6866;50.778;7.206;2022-10-28T03:45:47;17.10;99.90
13591;DHT22;6866;50.778;7.206;2022-10-28T03:48:13;17.10;99.90
13591;DHT22;6866;50.778;7.206;2022-10-28T03:50:38;17.10;99.90
13591;DHT22;6866;50.778;7.206;2022-10-28T03:53:04;17.10;99.90
13591;DHT22;6866;50.778;7.206;2022-10-28T03:55:30;17.10;99.90
13591;DHT22;6866;50.778;7.206;2022-10-28T03:57:55;17.10;99.90
13591;DHT22;6866;50.778;7.206;2022-10-28T04:00:24;17.10;99.90
13591;DHT22;6866;50.778;7.206;2022-10-28T04:02:50;17.10;99.90
13591;DHT22;6866;50.778;7.206;2022-10-28T04:05:16;17.00;99.90
13591;DHT22;6866;50.778;7.206;2022-10-28T04:07:42;17.00;99.90
13591;DHT22;6866;50.778;7.206;2022-10-28T04:10:08;17.00;99.90
13591;DHT22;6866;50.778;7.206;2022-10-28T04:12:34;17.00;99.90
13591;DHT22;6866;50.778;7.206;2022-10-28T04:14:59;17.00;99.90
13591;DHT22;6866;50.778;7.206;2022-10-28T04:17:25;17.00;99.90
13591;DHT22;6866;50.778;7.206;2022-10-28T04:19:50;16.90;99.90
13591;DHT22;6866;50.778;7.206;2022-10-28T04:22:16;16.90;99.90
13591;DHT22;6866;50.778;7.206;2022-10-28T04:24:41;16.90;99.90
13591;DHT22;6866;50.778;7.206;2022-10-28T04:27:07;16.90;99.90
13591;DHT22;6866;50.778;7.206;2022-10-28T04:29:32;16.80;99.90
13591;DHT22;6866;50.778;7.206;2022-10-28T04:31:58;16.80;99.90
13591;DHT22;6866;50.778;7.206;2022-10-28T04:34:24;16.80;99.90
13591;DHT22;6866;50.778;7.206;2022-10-28T04:36:49;16.80;99.90
13591;DHT22;6866;50.778;7.206;2022-10-28T04:39:15;16.80;99.90
13591;DHT22;6866;50.778;7.206;2022-10-28T04:41:40;16.80;99.90
13591;DHT22;6866;50.778;7.206;2022-10-28T04:44:06;16.80;99.90
13591;DHT22;6866;50.778;7.206;2022-10-28T04:46:31;16.80;99.90
13591;DHT22;6866;50.778;7.206;2022-10-28T04:48:57;16.80;99.90
13591;DHT22;6866;50.778;7.206;2022-10-28T04:51:22;16.80;99.90
13591;DHT22;6866;50.778;7.206;2022-10-28T04:53:48;16.70;99.90
13591;DHT22;6866;50.778;7.206;2022-10-28T04:56:13;16.70;99.90
13591;DHT22;6866;50.778;7.206;2022-10-28T04:58:39;16.70;99.90
13591;DHT22;6866;50.778;7.206;2022-10-28T05:01:06;16.60;99.90
13591;DHT22;6866;50.778;7.206;2022-10-28T05:03:32;16.50;99.90
13591;DHT22;6866;50.778;7.206;2022-10-28T05:05:57;16.50;99.90
13591;DHT22;6866;50.778;7.206;2022-10-28T05:08:23;16.50;99.90
13591;DHT22;6866;50.778;7.206;2022-10-28T05:10:48;16.40;99.90
13591;DHT22;6866;50.778;7.206;2022-10-28T05:13:18;16.40;99.90
13591;DHT22;6866;50.778;7.206;2022-10-28T05:15:44;16.30;99.90
13591;DHT22;6866;50.778;7.206;2022-10-28T05:18:11;16.30;99.90
13591;DHT22;6866;50.778;7.206;2022-10-28T05:20:37;16.20;99.90
13591;DHT22;6866;50.778;7.206;2022-10-28T05:23:02;16.20;99.90
13591;DHT22;6866;50.778;7.206;2022-10-28T05:25:28;16.20;99.90
13591;DHT22;6866;50.778;7.206;2022-10-28T05:27:57;16.00;99.90
13591;DHT22;6866;50.778;7.206;2022-10-28T05:30:24;16.10;99.90
13591;DHT22;6866;50.778;7.206;2022-10-28T05:32:50;16.00;99.90
13591;DHT22;6866;50.778;7.206;2022-10-28T05:35:15;16.10;99.90
13591;DHT22;6866;50.778;7.206;2022-10-28T05:37:42;16.10;99.90
13591;DHT22;6866;50.778;7.206;2022-10-28T05:40:08;16.10;99.90
13591;DHT22;6866;50.778;7.206;2022-10-28T05:42:40;16.00;99.90
13591;DHT22;6866;50.778;7.206;2022-10-28T05:45:06;16.00;99.90
13591;DHT22;6866;50.778;7.206;2022-10-28T05:47:32;16.00;99.90
13591;DHT22;6866;50.778;7.206;2022-10-28T05:49:57;15.90;99.90
13591;DHT22;6866;50.778;7.206;2022-10-28T05:52:23;16.00;99.90
13591;DHT22;6866;50.778;7.206;2022-10-28T05:54:48;16.00;99.90
13591;DHT22;6866;50.778;7.206;2022-10-28T05:57:14;16.00;99.90
13591;DHT22;6866;50.778;7.206;2022-10-28T05:59:39;16.00;99.90
13591;DHT22;6866;50.778;7.206;2022-10-28T06:02:05;16.10;99.90
13591;DHT22;6866;50.778;7.206;2022-10-28T06:04:30;16.10;99.90
13591;DHT22;6866;50.778;7.206;2022-10-28T06:06:57;16.20;99.90
13591;DHT22;6866;50.778;7.206;2022-10-28T06:09:22;16.20;99.90
13591;DHT22;6866;50.778;7.206;2022-10-28T06:11:48;16.30;99.90
13591;DHT22;6866;50.778;7.206;2022-10-28T06:14:13;16.40;99.90
13591;DHT22;6866;50.778;7.206;2022-10-28T06:16:39;16.40;99.90
13591;DHT22;6866;50.778;7.206;2022-10-28T06:19:04;16.40;99.90
13591;DHT22;6866;50.778;7.206;2022-10-28T06:21:30;16.40;99.90
13591;DHT22;6866;50.778;7.206;2022-10-28T06:23:55;16.40;99.90
13591;DHT22;6866;50.778;7.206;2022-10-28T06:26:21;16.40;99.90
13591;DHT22;6866;50.778;7.206;2022-10-28T06:28:47;16.40;99.90
13591;DHT22;6866;50.778;7.206;2022-10-28T06:31:13;16.30;99.90
13591;DHT22;6866;50.778;7.206;2022-10-28T06:33:38;16.40;99.90
13591;DHT22;6866;50.778;7.206;2022-10-28T06:36:04;16.40;99.90
13591;DHT22;6866;50.778;7.206;2022-10-28T06:38:29;16.40;99.90
13591;DHT22;6866;50.778;7.206;2022-10-28T06:40:58;16.40;99.90
13591;DHT22;6866;50.778;7.206;2022-10-28T06:43:24;16.50;99.90
13591;DHT22;6866;50.778;7.206;2022-10-28T06:45:49;16.50;99.90
13591;DHT22;6866;50.778;7.206;2022-10-28T06:48:20;16.60;99.90
13591;DHT22;6866;50.778;7.206;2022-10-28T06:50:45;16.70;99.90
13591;DHT22;6866;50.778;7.206;2022-10-28T06:53:11;16.80;99.90
13591;DHT22;6866;50.778;7.206;2022-10-28T06:55:36;16.70;99.90
13591;DHT22;6866;50.778;7.206;2022-10-28T06:58:02;16.80;99.90
13591;DHT22;6866;50.778;7.206;2022-10-28T07:00:29;16.80;99.90
13591;DHT22;6866;50.778;7.206;2022-10-28T07:02:55;16.80;99.90
13591;DHT22;6866;50.778;7.206;2022-10-28T07:05:22;16.90;99.90
13591;DHT22;6866;50.778;7.206;2022-10-28T07:07:49;16.90;99.90
13591;DHT22;6866;50.778;7.206;2022-10-28T07:10:15;17.00;99.90
13591;DHT22;6866;50.778;7.206;2022-10-28T07:12:40;17.00;99.90
13591;DHT22;6866;50.778;7.206;2022-10-28T07:15:06;17.00;99.90
13591;DHT22;6866;50.778;7.206;2022-10-28T07:17:32;17.00;99.90
13591;DHT22;6866;50.778;7.206;2022-10-28T07:19:57;17.00;99.90
13591;DHT22;6866;50.778;7.206;2022-10-28T07:22:23;17.00;99.90
13591;DHT22;6866;50.778;7.206;2022-10-28T07:24:48;17.10;99.90
13591;DHT22;6866;50.778;7.206;2022-10-28T07:27:14;17.20;99.90
13591;DHT22;6866;50.778;7.206;2022-10-28T07:29:39;17.20;99.90
13591;DHT22;6866;50.778;7.206;2022-10-28T07:32:05;17.30;99.90
13591;DHT22;6866;50.778;7.206;2022-10-28T07:34:31;17.40;99.90
13591;DHT22;6866;50.778;7.206;2022-10-28T07:36:56;17.40;99.90
13591;DHT22;6866;50.778;7.206;2022-10-28T07:39:22;17.40;99.90
13591;DHT22;6866;50.778;7.206;2022-10-28T07:41:48;17.50;99.90
13591;DHT22;6866;50.778;7.206;2022-10-28T07:44:13;17.50;99.90
13591;DHT22;6866;50.778;7.206;2022-10-28T07:46:39;17.50;99.90
13591;DHT22;6866;50.778;7.206;2022-10-28T07:49:05;17.50;99.90
13591;DHT22;6866;50.778;7.206;2022-10-28T07:51:31;17.60;99.90
13591;DHT22;6866;50.778;7.206;2022-10-28T07:53:57;17.60;99.90
13591;DHT22;6866;50.778;7.206;2022-10-28T07:56:23;17.70;99.90
13591;DHT22;6866;50.778;7.206;2022-10-28T07:58:48;17.70;99.90
13591;DHT22;6866;50.778;7.206;2022-10-28T08:01:16;17.70;99.90
13591;DHT22;6866;50.778;7.206;2022-10-28T08:03:43;17.70;99.90
13591;DHT22;6866;50.778;7.206;2022-10-28T08:06:10;17.70;99.90
13591;DHT22;6866;50.778;7.206;2022-10-28T08:08:37;17.80;99.90
13591;DHT22;6866;50.778;7.206;2022-10-28T08:11:11;17.80;99.90
13591;DHT22;6866;50.778;7.206;2022-10-28T08:13:37;17.80;99.90
13591;DHT22;6866;50.778;7.206;2022-10-28T08:16:02;17.90;99.90
13591;DHT22;6866;50.778;7.206;2022-10-28T08:18:28;17.90;99.90
13591;DHT22;6866;50.778;7.206;2022-10-28T08:20:53;18.00;99.90
13591;DHT22;6866;50.778;7.206;2022-10-28T08:23:19;18.10;99.90
13591;DHT22;6866;50.778;7.206;2022-10-28T08:25:49;18.30;99.90
13591;DHT22;6866;50.778;7.206;2022-10-28T08:28:15;18.50;99.50
13591;DHT22;6866;50.778;7.206;2022-10-28T08:30:41;18.50;99.20
13591;DHT22;6866;50.778;7.206;2022-10-28T08:33:06;18.50;99.50
13591;DHT22;6866;50.778;7.206;2022-10-28T08:35:32;18.50;99.60
13591;DHT22;6866;50.778;7.206;2022-10-28T08:37:59;18.60;99.60
13591;DHT22;6866;50.778;7.206;2022-10-28T08:40:35;18.70;99.80
13591;DHT22;6866;50.778;7.206;2022-10-28T08:43:13;18.70;99.70
13591;DHT22;6866;50.778;7.206;2022-10-28T08:48:27;18.90;98.90
13591;DHT22;6866;50.778;7.206;2022-10-28T08:51:02;19.00;98.20
13591;DHT22;6866;50.778;7.206;2022-10-28T08:53:35;19.20;97.50
13591;DHT22;6866;50.778;7.206;2022-10-28T08:56:15;19.30;97.10
13591;DHT22;6866;50.778;7.206;2022-10-28T08:58:44;19.50;96.50
13591;DHT22;6866;50.778;7.206;2022-10-28T09:01:24;19.60;95.90
13591;DHT22;6866;50.778;7.206;2022-10-28T09:03:51;19.70;95.40
13591;DHT22;6866;50.778;7.206;2022-10-28T09:06:17;19.90;95.30
13591;DHT22;6866;50.778;7.206;2022-10-28T09:08:48;20.20;93.50
13591;DHT22;6866;50.778;7.206;2022-10-28T09:11:44;21.60;91.30
13591;DHT22;6866;50.778;7.206;2022-10-28T09:19:48;24.60;70.50
13591;DHT22;6866;50.778;7.206;2022-10-28T09:22:22;25.20;66.00
13591;DHT22;6866;50.778;7.206;2022-10-28T09:24:59;25.80;62.40
13591;DHT22;6866;50.778;7.206;2022-10-28T09:30:27;26.30;59.10
13591;DHT22;6866;50.778;7.206;2022-10-28T09:35:25;23.90;68.40
13591;DHT22;6866;50.778;7.206;2022-10-28T09:38:01;24.10;68.00
13591;DHT22;6866;50.778;7.206;2022-10-28T09:40:33;25.40;62.70
13591;DHT22;6866;50.778;7.206;2022-10-28T09:45:31;25.20;59.30
13591;DHT22;6866;50.778;7.206;2022-10-28T09:48:02;24.90;61.70
13591;DHT22;6866;50.778;7.206;2022-10-28T09:50:31;25.30;59.30
13591;DHT22;6866;50.778;7.206;2022-10-28T09:56:01;25.20;59.60
13591;DHT22;6866;50.778;7.206;2022-10-28T09:58:27;24.60;61.00
13591;DHT22;6866;50.778;7.206;2022-10-28T10:00:53;24.50;60.10
13591;DHT22;6866;50.778;7.206;2022-10-28T10:03:19;24.40;62.50
13591;DHT22;6866;50.778;7.206;2022-10-28T10:05:48;24.00;61.80
13591;DHT22;6866;50.778;7.206;2022-10-28T10:08:17;24.00;61.40
13591;DHT22;6866;50.778;7.206;2022-10-28T10:10:49;24.10;63.90
13591;DHT22;6866;50.778;7.206;2022-10-28T10:13:20;24.40;61.60
13591;DHT22;6866;50.778;7.206;2022-10-28T10:16:07;24.40;62.40
13591;DHT22;6866;50.778;7.206;2022-10-28T10:18:37;24.40;60.00
13591;DHT22;6866;50.778;7.206;2022-10-28T10:21:06;24.30;62.70
13591;DHT22;6866;50.778;7.206;2022-10-28T10:23:34;24.20;62.60
13591;DHT22;6866;50.778;7.206;2022-10-28T10:26:09;24.30;60.90
13591;DHT22;6866;50.778;7.206;2022-10-28T10:28:44;24.20;61.10
13591;DHT22;6866;50.778;7.206;2022-10-28T10:31:24;24.30;62.00
13591;DHT22;6866;50.778;7.206;2022-10-28T10:33:55;24.30;61.00
13591;DHT22;6866;50.778;7.206;2022-10-28T10:36:23;24.50;61.90
13591;DHT22;6866;50.778;7.206;2022-10-28T10:38:54;24.60;60.80
13591;DHT22;6866;50.778;7.206;2022-10-28T10:41:34;24.70;60.70
13591;DHT22;6866;50.778;7.206;2022-10-28T10:44:00;24.40;59.10
13591;DHT22;6866;50.778;7.206;2022-10-28T10:46:26;24.20;61.50
13591;DHT22;6866;50.778;7.206;2022-10-28T10:49:12;24.10;61.40
13591;DHT22;6866;50.778;7.206;2022-10-28T10:51:51;23.90;63.00
13591;DHT22;6866;50.778;7.206;2022-10-28T10:54:17;23.90;62.50
13591;DHT22;6866;50.778;7.206;2022-10-28T10:56:43;23.90;62.00
13591;DHT22;6866;50.778;7.206;2022-10-28T10:59:25;23.90;62.00
13591;DHT22;6866;50.778;7.206;2022-10-28T11:01:52;24.00;62.00
13591;DHT22;6866;50.778;7.206;2022-10-28T11:04:20;24.10;62.70
13591;DHT22;6866;50.778;7.206;2022-10-28T11:06:51;24.00;61.20
13591;DHT22;6866;50.778;7.206;2022-10-28T11:11:51;24.00;61.90
13591;DHT22;6866;50.778;7.206;2022-10-28T11:14:23;24.00;64.20
13591;DHT22;6866;50.778;7.206;2022-10-28T11:16:51;24.10;62.20
13591;DHT22;6866;50.778;7.206;2022-10-28T11:19:22;24.10;64.30
13591;DHT22;6866;50.778;7.206;2022-10-28T11:22:03;24.20;63.40
13591;DHT22;6866;50.778;7.206;2022-10-28T11:29:32;24.30;63.30
13591;DHT22;6866;50.778;7.206;2022-10-28T11:32:20;24.00;63.40
13591;DHT22;6866;50.778;7.206;2022-10-28T11:50:58;24.40;65.30
13591;DHT22;6866;50.778;7.206;2022-10-28T12:01:56;24.20;65.90
13591;DHT22;6866;50.778;7.206;2022-10-28T12:12:43;24.70;64.90
13591;DHT22;6866;50.778;7.206;2022-10-28T12:15:32;24.70;58.00
13591;DHT22;6866;50.778;7.206;2022-10-28T12:23:20;24.90;56.60
13591;DHT22;6866;50.778;7.206;2022-10-28T12:25:50;24.90;57.70
13591;DHT22;6866;50.778;7.206;2022-10-28T12:28:38;25.00;58.00
13591;DHT22;6866;50.778;7.206;2022-10-28T12:31:14;25.10;57.50
13591;DHT22;6866;50.778;7.206;2022-10-28T12:33:44;25.10;56.50
13591;DHT22;6866;50.778;7.206;2022-10-28T12:36:18;25.00;55.70
13591;DHT22;6866;50.778;7.206;2022-10-28T12:39:04;24.90;56.70
13591;DHT22;6866;50.778;7.206;2022-10-28T12:42:17;24.90;55.30
13591;DHT22;6866;50.778;7.206;2022-10-28T12:44:45;24.90;55.90
13591;DHT22;6866;50.778;7.206;2022-10-28T12:47:23;24.70;58.50
13591;DHT22;6866;50.778;7.206;2022-10-28T12:52:32;24.40;59.80
13591;DHT22;6866;50.778;7.206;2022-10-28T12:55:34;24.40;56.90
13591;DHT22;6866;50.778;7.206;2022-10-28T13:00:41;24.30;58.20
13591;DHT22;6866;50.778;7.206;2022-10-28T13:03:11;24.40;58.20
13591;DHT22;6866;50.778;7.206;2022-10-28T13:05:54;24.40;57.70
13591;DHT22;6866;50.778;7.206;2022-10-28T13:16:40;24.50;57.50
13591;DHT22;6866;50.778;7.206;2022-10-28T13:22:08;24.40;57.30
13591;DHT22;6866;50.778;7.206;2022-10-28T13:27:14;24.30;59.20
13591;DHT22;6866;50.778;7.206;2022-10-28T13:29:42;24.30;58.80
13591;DHT22;6866;50.778;7.206;2022-10-28T13:32:31;24.30;60.30
13591;DHT22;6866;50.778;7.206;2022-10-28T13:34:58;24.20;58.00
13591;DHT22;6866;50.778;7.206;2022-10-28T13:37:33;24.20;61.40
13591;DHT22;6866;50.778;7.206;2022-10-28T13:39:59;24.20;60.00
13591;DHT22;6866;50.778;7.206;2022-10-28T13:42:51;24.10;58.90
13591;DHT22;6866;50.778;7.206;2022-10-28T13:45:50;24.10;58.90
13591;DHT22;6866;50.778;7.206;2022-10-28T13:59:02;24.10;60.40
13591;DHT22;6866;50.778;7.206;2022-10-28T14:01:47;24.00;61.20
13591;DHT22;6866;50.778;7.206;2022-10-28T14:04:22;23.90;61.10
13591;DHT22;6866;50.778;7.206;2022-10-28T14:06:48;23.90;61.60
13591;DHT22;6866;50.778;7.206;2022-10-28T14:09:25;23.80;61.60
13591;DHT22;6866;50.778;7.206;2022-10-28T14:14:58;23.70;61.40
13591;DHT22;6866;50.778;7.206;2022-10-28T14:17:39;23.70;61.80
13591;DHT22;6866;50.778;7.206;2022-10-28T14:20:19;23.60;62.70
13591;DHT22;6866;50.778;7.206;2022-10-28T14:22:46;23.60;64.00
13591;DHT22;6866;50.778;7.206;2022-10-28T14:52:35;22.90;71.00
13591;DHT22;6866;50.778;7.206;2022-10-28T14:55:04;22.90;69.40
13591;DHT22;6866;50.778;7.206;2022-10-28T14:57:32;22.90;71.50
13591;DHT22;6866;50.778;7.206;2022-10-28T15:00:03;22.80;72.80
13591;DHT22;6866;50.778;7.206;2022-10-28T15:02:31;22.70;72.30
13591;DHT22;6866;50.778;7.206;2022-10-28T15:05:19;22.70;72.40
13591;DHT22;6866;50.778;7.206;2022-10-28T15:07:46;22.60;71.20
13591;DHT22;6866;50.778;7.206;2022-10-28T15:10:32;22.50;71.60
13591;DHT22;6866;50.778;7.206;2022-10-28T15:13:00;22.50;69.60
13591;DHT22;6866;50.778;7.206;2022-10-28T15:15:28;22.50;70.60
13591;DHT22;6866;50.778;7.206;2022-10-28T15:17:55;22.30;73.70
13591;DHT22;6866;50.778;7.206;2022-10-28T15:20:26;22.30;74.30
13591;DHT22;6866;50.778;7.206;2022-10-28T15:23:08;22.20;73.70
13591;DHT22;6866;50.778;7.206;2022-10-28T15:25:34;22.20;73.50
13591;DHT22;6866;50.778;7.206;2022-10-28T15:28:00;22.20;72.20
13591;DHT22;6866;50.778;7.206;2022-10-28T15:30:25;22.20;71.10
13591;DHT22;6866;50.778;7.206;2022-10-28T15:32:53;22.10;70.10
13591;DHT22;6866;50.778;7.206;2022-10-28T15:38:00;22.10;68.60
13591;DHT22;6866;50.778;7.206;2022-10-28T15:42:57;22.20;69.90
13591;DHT22;6866;50.778;7.206;2022-10-28T15:45:26;22.10;69.90
13591;DHT22;6866;50.778;7.206;2022-10-28T15:47:52;22.00;70.30
13591;DHT22;6866;50.778;7.206;2022-10-28T15:50:24;21.90;72.50
13591;DHT22;6866;50.778;7.206;2022-10-28T15:52:50;21.80;72.70
13591;DHT22;6866;50.778;7.206;2022-10-28T15:57:49;21.60;73.40
13591;DHT22;6866;50.778;7.206;2022-10-28T16:08:15;21.30;77.00
13591;DHT22;6866;50.778;7.206;2022-10-28T16:10:45;21.30;77.60
13591;DHT22;6866;50.778;7.206;2022-10-28T16:13:21;21.30;78.30
13591;DHT22;6866;50.778;7.206;2022-10-28T16:15:54;21.20;78.20
13591;DHT22;6866;50.778;7.206;2022-10-28T16:18:22;21.10;78.80
13591;DHT22;6866;50.778;7.206;2022-10-28T16:20:48;21.00;79.80
13591;DHT22;6866;50.778;7.206;2022-10-28T16:23:19;20.90;80.60
13591;DHT22;6866;50.778;7.206;2022-10-28T16:25:45;21.00;81.20
13591;DHT22;6866;50.778;7.206;2022-10-28T16:28:26;20.90;81.80
13591;DHT22;6866;50.778;7.206;2022-10-28T16:30:54;20.90;82.50
13591;DHT22;6866;50.778;7.206;2022-10-28T16:33:29;20.70;82.70
13591;DHT22;6866;50.778;7.206;2022-10-28T16:35:55;20.70;83.70
13591;DHT22;6866;50.778;7.206;2022-10-28T16:38:21;20.70;85.10
13591;DHT22;6866;50.778;7.206;2022-10-28T16:40:46;20.60;84.60
13591;DHT22;6866;50.778;7.206;2022-10-28T16:43:17;20.60;85.50
13591;DHT22;6866;50.778;7.206;2022-10-28T16:45:44;20.50;86.40
13591;DHT22;6866;50.778;7.206;2022-10-28T16:48:11;20.40;88.00
13591;DHT22;6866;50.778;7.206;2022-10-28T16:50:38;20.40;88.90
13591;DHT22;6866;50.778;7.206;2022-10-28T16:53:05;20.30;90.00
13591;DHT22;6866;50.778;7.206;2022-10-28T16:55:31;20.20;90.80
13591;DHT22;6866;50.778;7.206;2022-10-28T16:57:58;20.10;91.40
13591;DHT22;6866;50.778;7.206;2022-10-28T17:00:23;20.10;92.00
13591;DHT22;6866;50.778;7.206;2022-10-28T17:02:48;20.00;92.30
13591;DHT22;6866;50.778;7.206;2022-10-28T17:05:20;19.90;92.60
13591;DHT22;6866;50.778;7.206;2022-10-28T17:07:46;19.80;93.10
13591;DHT22;6866;50.778;7.206;2022-10-28T17:10:12;19.90;93.30
13591;DHT22;6866;50.778;7.206;2022-10-28T17:12:38;19.80;93.60
13591;DHT22;6866;50.778;7.206;2022-10-28T17:15:04;19.80;94.50
13591;DHT22;6866;50.778;7.206;2022-10-28T17:17:29;19.80;94.40
13591;DHT22;6866;50.778;7.206;2022-10-28T17:19:55;19.70;94.90
13591;DHT22;6866;50.778;7.206;2022-10-28T17:22:20;19.70;94.60
13591;DHT22;6866;50.778;7.206;2022-10-28T17:24:46;19.70;94.30
13591;DHT22;6866;50.778;7.206;2022-10-28T17:27:12;19.70;94.20
13591;DHT22;6866;50.778;7.206;2022-10-28T17:29:38;19.60;94.60
13591;DHT22;6866;50.778;7.206;2022-10-28T17:32:04;19.60;94.40
13591;DHT22;6866;50.778;7.206;2022-10-28T17:34:31;19.60;94.10
13591;DHT22;6866;50.778;7.206;2022-10-28T17:36:56;19.60;93.80
13591;DHT22;6866;50.778;7.206;2022-10-28T17:39:22;19.60;93.70
13591;DHT22;6866;50.778;7.206;2022-10-28T17:41:48;19.60;93.40
13591;DHT22;6866;50.778;7.206;2022-10-28T17:44:13;19.60;93.60
13591;DHT22;6866;50.778;7.206;2022-10-28T17:46:39;19.50;94.30
13591;DHT22;6866;50.778;7.206;2022-10-28T17:49:04;19.40;94.70
13591;DHT22;6866;50.778;7.206;2022-10-28T17:51:36;19.30;95.20
13591;DHT22;6866;50.778;7.206;2022-10-28T17:54:02;19.10;96.30
13591;DHT22;6866;50.778;7.206;2022-10-28T17:56:34;19.00;97.30
13591;DHT22;6866;50.778;7.206;2022-10-28T17:59:00;19.00;97.20
13591;DHT22;6866;50.778;7.206;2022-10-28T18:01:29;18.90;97.70
13591;DHT22;6866;50.778;7.206;2022-10-28T18:03:55;18.80;98.10
13591;DHT22;6866;50.778;7.206;2022-10-28T18:06:20;18.80;97.60
13591;DHT22;6866;50.778;7.206;2022-10-28T18:08:46;18.90;97.50
13591;DHT22;6866;50.778;7.206;2022-10-28T18:11:13;18.80;97.10
13591;DHT22;6866;50.778;7.206;2022-10-28T18:13:41;18.80;97.50
13591;DHT22;6866;50.778;7.206;2022-10-28T18:16:14;18.90;97.60
13591;DHT22;6866;50.778;7.206;2022-10-28T18:18:40;18.80;97.50
13591;DHT22;6866;50.778;7.206;2022-10-28T18:21:06;18.80;97.40
13591;DHT22;6866;50.778;7.206;2022-10-28T18:23:33;18.80;97.50
13591;DHT22;6866;50.778;7.206;2022-10-28T18:26:05;18.80;97.50
13591;DHT22;6866;50.778;7.206;2022-10-28T18:28:32;18.80;97.60
13591;DHT22;6866;50.778;7.206;2022-10-28T18:33:32;18.60;98.20
13591;DHT22;6866;50.778;7.206;2022-10-28T18:36:05;18.60;98.50
13591;DHT22;6866;50.778;7.206;2022-10-28T18:38:32;18.50;98.90
13591;DHT22;6866;50.778;7.206;2022-10-28T18:40:57;18.50;99.10
13591;DHT22;6866;50.778;7.206;2022-10-28T18:43:23;18.50;99.20
13591;DHT22;6866;50.778;7.206;2022-10-28T18:45:49;18.50;99.50
13591;DHT22;6866;50.778;7.206;2022-10-28T18:48:15;18.50;99.40
13591;DHT22;6866;50.778;7.206;2022-10-28T18:50:41;18.40;99.60
13591;DHT22;6866;50.778;7.206;2022-10-28T18:53:07;18.40;99.80
13591;DHT22;6866;50.778;7.206;2022-10-28T18:55:33;18.40;99.90
13591;DHT22;6866;50.778;7.206;2022-10-28T18:57:58;18.40;99.90
13591;DHT22;6866;50.778;7.206;2022-10-28T19:00:24;18.30;99.90
13591;DHT22;6866;50.778;7.206;2022-10-28T19:02:50;18.30;99.90